Wellton, Arizona
Current Conditions -  °F | °C
As of 8:57 PM on Sunday 25 Jan 2015 (Local Time) from KNYL Reporting Station
Clear Clear  
Wind Chill: 59°   Ceiling: Unl
Heat Index: 59°   Visibility: 10mi
Dew Point: 36°   Wind: 5mph
Humidity: 42%   Direction: 350°N
Pressure: 30.05"   Gusts: NA
Location:  32.67°N, 114.15°W
Report Text: KNYL 260357Z AUTO 35004KT 10SM CLR 15/02 A3005 RMK AO2 SLP174 T01500022 $
Loading
Personal Weather Stations






























Interactive Weather Map New forecast layout! Learn more

10-Day Weather Forecast

Advertisements
Track Severe Weather on mobile